Time;durP1;ratioP1;P1;durP2;ratioP2;P2;SDS_P1;SDS_P2;PMS_P1;PMS_P2;Temp;Humidity;BMP_temperature;BMP_pressure;BME280_temperature;BME280_humidity;BME280_pressure;Samples;Min_cycle;Max_cycle;Signal;HPM_P1;HPM_P2
2022/07/14 00:02:13;;;;;;;4.70;2.70;;;;;;;;;;5055367;28;20025;-77
2022/07/14 00:04:39;;;;;;;5.82;2.92;;;;;;;;;;5055286;28;20132;-76
2022/07/14 00:07:05;;;;;;;5.82;4.13;;;;;;;;;;5055097;28;20078;-77
2022/07/14 00:09:30;;;;;;;6.07;3.67;;;;;;;;;;5055243;28;20025;-77
2022/07/14 00:11:56;;;;;;;4.85;3.90;;;;;;;;;;5053858;28;20025;-78
2022/07/14 00:14:21;;;;;;;7.10;3.88;;;;;;;;;;5055174;28;20013;-77
2022/07/14 00:16:46;;;;;;;4.72;3.20;;;;;;;;;;5054961;28;20108;-78
2022/07/14 00:19:12;;;;;;;3.30;2.60;;;;;;;;;;5055029;28;20384;-77
2022/07/14 00:21:37;;;;;;;4.57;2.65;;;;;;;;;;5053784;28;20411;-77
2022/07/14 00:24:03;;;;;;;3.80;2.92;;;;;;;;;;5053752;28;20021;-78
2022/07/14 00:26:28;;;;;;;3.17;2.83;;;;;;;;;;5054857;28;20538;-77
2022/07/14 00:28:54;;;;;;;3.75;2.35;;;;;;;;;;5053626;28;20561;-77
2022/07/14 00:31:19;;;;;;;7.57;2.88;;;;;;;;;;5054794;28;20051;-77
2022/07/14 00:33:45;;;;;;;4.47;3.10;;;;;;;;;;5037007;28;20032;-77
2022/07/14 00:36:15;;;;;;;3.15;2.92;;;;;;;;;;5054627;28;20476;-77
2022/07/14 00:38:40;;;;;;;3.20;2.70;;;;;;;;;;5054680;28;20056;-77
2022/07/14 00:41:05;;;;;;;3.30;3.05;;;;;;;;;;5054640;28;20029;-77
2022/07/14 00:43:31;;;;;;;3.45;2.85;;;;;;;;;;5053310;28;20020;-77
2022/07/14 00:45:56;;;;;;;2.67;2.47;;;;;;;;;;5054655;28;20029;-77
2022/07/14 00:48:24;;;;;;;4.03;2.88;;;;;;;;;;5054541;28;20357;-77
2022/07/14 00:50:51;;;;;;;4.80;2.95;;;;;;;;;;5054424;28;20032;-77
2022/07/14 00:53:16;;;;;;;4.47;3.05;;;;;;;;;;5054282;28;20029;-77
2022/07/14 00:55:45;;;;;;;5.68;3.00;;;;;;;;;;5052981;28;20109;-77
2022/07/14 00:58:11;;;;;;;3.10;2.80;;;;;;;;;;5036474;28;20021;-77
2022/07/14 01:00:37;;;;;;;4.40;2.90;;;;;;;;;;5052898;28;20040;-77
2022/07/14 01:03:02;;;;;;;3.53;3.00;;;;;;;;;;5054271;28;20040;-78
2022/07/14 01:05:28;;;;;;;6.07;3.47;;;;;;;;;;5053525;28;20032;-78
2022/07/14 01:07:54;;;;;;;5.38;3.30;;;;;;;;;;5054328;28;20552;-78
2022/07/14 01:10:19;;;;;;;3.30;3.00;;;;;;;;;;5052775;28;20504;-78
2022/07/14 01:12:46;;;;;;;3.33;3.05;;;;;;;;;;5054042;28;20472;-77
2022/07/14 01:15:18;;;;;;;5.10;3.47;;;;;;;;;;5052633;28;20037;-77
2022/07/14 01:17:47;;;;;;;4.60;3.10;;;;;;;;;;5052665;28;20017;-77
2022/07/14 01:20:13;;;;;;;6.03;3.40;;;;;;;;;;5052664;28;20013;-77
2022/07/14 01:22:39;;;;;;;4.53;3.25;;;;;;;;;;5052567;28;20040;-77
2022/07/14 01:25:06;;;;;;;4.38;3.53;;;;;;;;;;5052605;28;20036;-77
2022/07/14 01:27:32;;;;;;;5.55;3.47;;;;;;;;;;5052572;28;20021;-77
2022/07/14 01:29:58;;;;;;;6.28;3.95;;;;;;;;;;5053811;28;20028;-77
2022/07/14 01:32:23;;;;;;;5.15;3.33;;;;;;;;;;5053834;28;20025;-76
2022/07/14 01:34:49;;;;;;;5.57;3.38;;;;;;;;;;5052413;28;20103;-77
2022/07/14 01:37:14;;;;;;;4.55;3.35;;;;;;;;;;5053754;28;20083;-77
2022/07/14 01:39:42;;;;;;;5.53;3.65;;;;;;;;;;5052376;28;20012;-78
2022/07/14 01:42:08;;;;;;;5.75;3.30;;;;;;;;;;5053636;28;20541;-78
2022/07/14 01:44:33;;;;;;;7.20;3.35;;;;;;;;;;5053560;28;20516;-78
2022/07/14 01:46:59;;;;;;;7.57;3.35;;;;;;;;;;5052264;28;20029;-78
2022/07/14 01:49:24;;;;;;;3.97;3.28;;;;;;;;;;5052253;28;20028;-78
2022/07/14 01:51:50;;;;;;;5.00;3.03;;;;;;;;;;5052469;28;20028;-78
2022/07/14 01:54:18;;;;;;;4.60;3.63;;;;;;;;;;5052480;28;20020;-78
2022/07/14 01:56:43;;;;;;;4.28;3.38;;;;;;;;;;5052090;28;20067;-78
2022/07/14 01:59:12;;;;;;;5.22;3.10;;;;;;;;;;5052159;28;20017;-78
2022/07/14 02:01:41;;;;;;;6.50;3.35;;;;;;;;;;5052133;28;20017;-78
2022/07/14 02:04:09;;;;;;;3.58;3.17;;;;;;;;;;5052119;28;20024;-78
2022/07/14 02:06:35;;;;;;;5.18;3.33;;;;;;;;;;5035373;28;20072;-78
2022/07/14 02:09:00;;;;;;;5.03;3.47;;;;;;;;;;5052051;28;20553;-78
2022/07/14 02:14:10;;;;;;;4.78;3.70;;;;;;;;;;5052030;28;20377;-78
2022/07/14 02:16:36;;;;;;;5.05;3.65;;;;;;;;;;5051924;28;20116;-78
2022/07/14 02:19:02;;;;;;;4.00;3.33;;;;;;;;;;5055991;28;20037;-78
2022/07/14 02:21:28;;;;;;;5.05;3.30;;;;;;;;;;5056345;28;20475;-77
2022/07/14 02:23:54;;;;;;;4.50;3.60;;;;;;;;;;5055945;28;20471;-77
2022/07/14 02:26:20;;;;;;;4.68;3.35;;;;;;;;;;5055937;28;20013;-77
2022/07/14 02:28:45;;;;;;;5.72;3.78;;;;;;;;;;5057120;28;20033;-77
2022/07/14 02:31:11;;;;;;;5.03;3.30;;;;;;;;;;5055910;28;20115;-77
2022/07/14 02:33:36;;;;;;;4.50;3.28;;;;;;;;;;5057052;28;20534;-77
2022/07/14 02:36:02;;;;;;;4.20;3.10;;;;;;;;;;5056941;28;20017;-77
2022/07/14 02:38:28;;;;;;;4.75;3.78;;;;;;;;;;5055674;28;20029;-77
2022/07/14 02:40:54;;;;;;;3.88;3.47;;;;;;;;;;5055647;28;20040;-77
2022/07/14 02:43:19;;;;;;;5.40;3.42;;;;;;;;;;5055652;28;20074;-77
2022/07/14 02:45:45;;;;;;;6.22;3.45;;;;;;;;;;5055516;28;20032;-76
2022/07/14 02:48:11;;;;;;;4.53;3.20;;;;;;;;;;5055500;28;20476;-76
2022/07/14 02:50:36;;;;;;;7.28;3.40;;;;;;;;;;5055412;28;20028;-76
2022/07/14 02:53:03;;;;;;;5.70;3.00;;;;;;;;;;5055407;28;20028;-75
2022/07/14 02:55:34;;;;;;;3.55;3.25;;;;;;;;;;5055401;28;20107;-76
2022/07/14 02:57:59;;;;;;;4.63;2.92;;;;;;;;;;5055262;28;20396;-76
2022/07/14 03:00:25;;;;;;;3.70;3.40;;;;;;;;;;5039051;28;20017;-77
2022/07/14 03:02:51;;;;;;;3.83;3.03;;;;;;;;;;5055360;28;20021;-77
2022/07/14 03:05:16;;;;;;;3.90;3.10;;;;;;;;;;5054952;28;20129;-77
2022/07/14 03:07:42;;;;;;;3.03;2.80;;;;;;;;;;5055196;28;20036;-77
2022/07/14 03:10:08;;;;;;;4.57;3.47;;;;;;;;;;5038761;28;20017;-76
2022/07/14 03:12:33;;;;;;;11.07;3.63;;;;;;;;;;5056326;28;20380;-77
2022/07/14 03:15:03;;;;;;;6.50;3.47;;;;;;;;;;5056227;28;20017;-78
2022/07/14 03:17:29;;;;;;;5.40;3.28;;;;;;;;;;5055036;28;20033;-77
2022/07/14 03:19:54;;;;;;;4.97;3.17;;;;;;;;;;5054891;28;20021;-77
2022/07/14 03:22:20;;;;;;;3.90;3.10;;;;;;;;;;5054952;28;20074;-77
2022/07/14 03:24:45;;;;;;;8.32;2.80;;;;;;;;;;5054827;28;20013;-78
2022/07/14 03:27:12;;;;;;;4.18;3.20;;;;;;;;;;5054826;28;20488;-77
2022/07/14 03:29:41;;;;;;;8.50;3.28;;;;;;;;;;5054234;28;20028;-76
2022/07/14 03:32:07;;;;;;;4.88;3.22;;;;;;;;;;5054742;28;20029;-77
2022/07/14 03:34:33;;;;;;;5.05;3.22;;;;;;;;;;5054402;28;20472;-79
2022/07/14 03:37:00;;;;;;;3.35;3.05;;;;;;;;;;5052572;28;20040;-71
2022/07/14 03:39:34;;;;;;;3.10;2.80;;;;;;;;;;5054600;28;20025;-71
2022/07/14 03:42:01;;;;;;;3.40;3.10;;;;;;;;;;5054376;28;20039;-71
2022/07/14 03:44:26;;;;;;;6.55;3.22;;;;;;;;;;5053074;28;20039;-71
2022/07/14 03:46:52;;;;;;;3.42;2.83;;;;;;;;;;5052945;28;20079;-71
2022/07/14 03:49:20;;;;;;;4.53;2.70;;;;;;;;;;5052935;28;20052;-71
2022/07/14 03:51:48;;;;;;;4.57;3.10;;;;;;;;;;5052904;28;20334;-71
2022/07/14 03:54:19;;;;;;;6.75;3.00;;;;;;;;;;5051014;28;20105;-71
2022/07/14 03:56:44;;;;;;;5.25;3.00;;;;;;;;;;5067065;28;20034;-71
2022/07/14 03:59:11;;;;;;;5.93;2.90;;;;;;;;;;5033983;28;20017;-71
2022/07/14 04:01:39;;;;;;;3.25;2.95;;;;;;;;;;5033867;28;20082;-71
2022/07/14 04:04:06;;;;;;;3.97;3.22;;;;;;;;;;5050843;28;20071;-71
2022/07/14 04:06:32;;;;;;;5.60;3.90;;;;;;;;;;5033761;28;20140;-67
2022/07/14 04:08:58;;;;;;;6.93;3.70;;;;;;;;;;5033347;28;20030;-67
2022/07/14 04:11:24;;;;;;;7.88;4.22;;;;;;;;;;5033259;28;20511;-67
2022/07/14 04:13:52;;;;;;;8.40;3.40;;;;;;;;;;5034203;28;20033;-67
2022/07/14 04:16:18;;;;;;;3.42;3.00;;;;;;;;;;5032714;28;20409;-67
2022/07/14 04:18:48;;;;;;;3.53;2.78;;;;;;;;;;5033090;28;20026;-68
2022/07/14 04:21:14;;;;;;;5.03;3.00;;;;;;;;;;5033824;28;20064;-67
2022/07/14 04:23:40;;;;;;;4.53;3.22;;;;;;;;;;5033712;28;20111;-68
2022/07/14 04:26:06;;;;;;;4.03;2.80;;;;;;;;;;5033064;28;20028;-68
2022/07/14 04:28:32;;;;;;;5.65;3.42;;;;;;;;;;5048882;28;20022;-67
2022/07/14 04:30:58;;;;;;;4.07;3.00;;;;;;;;;;5032938;28;20064;-67
2022/07/14 04:33:24;;;;;;;3.90;3.10;;;;;;;;;;5017185;28;20025;-67
2022/07/14 04:35:52;;;;;;;4.13;2.63;;;;;;;;;;5034729;28;20362;-67
2022/07/14 04:38:17;;;;;;;2.70;2.50;;;;;;;;;;5050033;28;20028;-67
2022/07/14 04:40:49;;;;;;;3.42;2.55;;;;;;;;;;5032525;28;20123;-67
2022/07/14 04:43:14;;;;;;;2.65;2.45;;;;;;;;;;5031487;28;20025;-67
2022/07/14 04:45:40;;;;;;;2.97;2.50;;;;;;;;;;5031474;28;20465;-67
2022/07/14 04:48:05;;;;;;;5.45;2.42;;;;;;;;;;5031275;28;20545;-67
2022/07/14 04:53:15;;;;;;;3.95;2.63;;;;;;;;;;5031179;28;20033;-67
2022/07/14 04:55:45;;;;;;;3.45;2.45;;;;;;;;;;5016435;28;20025;-67
2022/07/14 04:58:30;;;;;;;3.55;2.50;;;;;;;;;;5034175;28;20037;-67
2022/07/14 05:01:00;;;;;;;3.85;2.75;;;;;;;;;;5032619;28;20057;-67
2022/07/14 05:03:30;;;;;;;6.10;3.05;;;;;;;;;;5066235;28;20473;-67
2022/07/14 05:05:56;;;;;;;2.72;2.50;;;;;;;;;;5032700;28;20040;-67
2022/07/14 05:08:22;;;;;;;3.63;2.83;;;;;;;;;;5032914;28;20502;-67
2022/07/14 05:10:49;;;;;;;3.25;2.95;;;;;;;;;;5032846;28;20028;-67
2022/07/14 05:13:15;;;;;;;5.18;2.90;;;;;;;;;;5033011;28;20029;-67
2022/07/14 05:15:41;;;;;;;3.65;2.85;;;;;;;;;;5032770;28;20531;-67
2022/07/14 05:18:07;;;;;;;2.95;2.72;;;;;;;;;;5032857;28;20029;-67
2022/07/14 05:20:32;;;;;;;3.70;2.88;;;;;;;;;;5032802;28;20535;-67
2022/07/14 05:22:57;;;;;;;4.45;2.95;;;;;;;;;;5032661;28;20029;-67
2022/07/14 05:25:23;;;;;;;4.95;2.80;;;;;;;;;;5032675;28;20053;-67
2022/07/14 05:27:50;;;;;;;4.38;2.47;;;;;;;;;;5032781;28;20534;-67
2022/07/14 05:30:24;;;;;;;2.50;2.30;;;;;;;;;;5032799;28;20018;-67
2022/07/14 05:32:50;;;;;;;2.83;2.50;;;;;;;;;;5032847;28;20025;-67
2022/07/14 05:35:16;;;;;;;2.20;2.00;;;;;;;;;;5032401;28;20109;-67
2022/07/14 05:37:41;;;;;;;4.65;2.38;;;;;;;;;;5033758;28;20045;-67
2022/07/14 05:40:07;;;;;;;4.45;2.42;;;;;;;;;;5032461;28;20415;-67
2022/07/14 05:42:33;;;;;;;3.83;2.80;;;;;;;;;;5065757;28;20025;-67
2022/07/14 05:44:59;;;;;;;2.95;2.50;;;;;;;;;;5032380;28;20384;-67
2022/07/14 05:47:25;;;;;;;4.07;2.47;;;;;;;;;;5033640;28;20087;-67
2022/07/14 05:49:50;;;;;;;3.92;2.45;;;;;;;;;;5033637;28;20021;-67
2022/07/14 05:52:16;;;;;;;4.10;2.72;;;;;;;;;;5065456;28;20477;-67
2022/07/14 05:54:42;;;;;;;3.25;2.42;;;;;;;;;;5032306;28;20472;-67
2022/07/14 05:57:13;;;;;;;3.35;2.40;;;;;;;;;;5031878;28;20033;-67
2022/07/14 05:59:40;;;;;;;2.55;2.10;;;;;;;;;;5031927;28;20051;-67
2022/07/14 06:02:06;;;;;;;3.38;2.05;;;;;;;;;;5033628;28;20100;-67
2022/07/14 06:04:31;;;;;;;4.97;2.50;;;;;;;;;;5065614;28;20028;-67
2022/07/14 06:06:59;;;;;;;2.85;2.08;;;;;;;;;;5032040;28;20049;-67
2022/07/14 06:09:25;;;;;;;3.70;2.17;;;;;;;;;;5033436;28;20052;-67
2022/07/14 06:11:51;;;;;;;3.13;2.28;;;;;;;;;;5032150;28;20025;-67
2022/07/14 06:14:17;;;;;;;6.38;2.35;;;;;;;;;;5032381;28;20403;-67
2022/07/14 06:16:43;;;;;;;3.15;2.00;;;;;;;;;;5032035;28;20025;-67
2022/07/14 06:19:09;;;;;;;2.20;1.98;;;;;;;;;;5032122;28;20065;-67
2022/07/14 06:21:35;;;;;;;2.20;2.00;;;;;;;;;;5032180;28;20022;-67
2022/07/14 06:24:01;;;;;;;4.63;2.05;;;;;;;;;;5033328;28;20492;-67
2022/07/14 06:26:26;;;;;;;3.05;1.67;;;;;;;;;;5033288;28;20024;-67
2022/07/14 06:28:52;;;;;;;3.08;2.05;;;;;;;;;;5033284;28;20061;-67
2022/07/14 06:31:18;;;;;;;3.30;1.73;;;;;;;;;;5031964;28;20026;-67
2022/07/14 06:33:43;;;;;;;4.65;2.08;;;;;;;;;;5031974;28;20033;-67
2022/07/14 06:36:23;;;;;;;25.25;3.13;;;;;;;;;;5031838;28;20465;-67
2022/07/14 06:38:49;;;;;;;13.73;2.10;;;;;;;;;;5031856;28;20035;-67
2022/07/14 06:41:14;;;;;;;2.10;1.55;;;;;;;;;;5031892;28;20029;-67
2022/07/14 06:43:44;;;;;;;2.58;2.03;;;;;;;;;;5031866;28;20076;-67
2022/07/14 06:46:14;;;;;;;5.05;1.63;;;;;;;;;;5031828;28;20493;-67
2022/07/14 06:48:40;;;;;;;2.50;1.75;;;;;;;;;;5031760;28;20034;-67
2022/07/14 06:51:05;;;;;;;4.07;1.85;;;;;;;;;;5033145;28;20055;-67
2022/07/14 06:53:31;;;;;;;3.80;1.58;;;;;;;;;;5033008;28;20021;-67
2022/07/14 06:55:56;;;;;;;2.72;1.77;;;;;;;;;;5032968;28;20024;-67
2022/07/14 06:58:21;;;;;;;3.88;1.83;;;;;;;;;;5031834;28;20056;-67
2022/07/14 07:00:47;;;;;;;1.83;1.67;;;;;;;;;;5033071;28;20022;-67
2022/07/14 07:03:13;;;;;;;1.63;1.52;;;;;;;;;;5033913;28;20025;-67
2022/07/14 07:08:23;;;;;;;6.30;2.25;;;;;;;;;;5035272;28;20041;-66
2022/07/14 07:10:49;;;;;;;14.05;2.47;;;;;;;;;;5036436;28;20036;-67
2022/07/14 07:13:15;;;;;;;1.77;1.67;;;;;;;;;;5036420;28;20041;-67
2022/07/14 07:15:40;;;;;;;1.95;1.85;;;;;;;;;;5036389;28;20017;-67
2022/07/14 07:18:06;;;;;;;1.88;1.65;;;;;;;;;;5035052;28;20076;-67
2022/07/14 07:20:33;;;;;;;65.18;4.63;;;;;;;;;;5036339;28;20029;-67
2022/07/14 07:22:58;;;;;;;2.15;1.83;;;;;;;;;;5036529;28;20026;-67
2022/07/14 07:25:24;;;;;;;2.20;2.00;;;;;;;;;;5036359;28;20017;-67
2022/07/14 07:27:49;;;;;;;3.28;1.90;;;;;;;;;;5036314;28;20378;-67
2022/07/14 07:30:14;;;;;;;2.38;1.90;;;;;;;;;;5036465;28;20100;-67
2022/07/14 07:32:40;;;;;;;2.38;1.83;;;;;;;;;;5036071;28;20025;-67
2022/07/14 07:35:05;;;;;;;1.83;1.73;;;;;;;;;;5036058;28;20544;-67
2022/07/14 07:37:32;;;;;;;1.88;1.63;;;;;;;;;;5034715;28;20519;-67
2022/07/14 07:39:57;;;;;;;1.63;1.52;;;;;;;;;;5035940;28;20104;-67
2022/07/14 07:42:23;;;;;;;1.70;1.60;;;;;;;;;;5034647;28;20061;-67
2022/07/14 07:44:49;;;;;;;2.53;2.00;;;;;;;;;;5035841;28;20138;-68
2022/07/14 07:47:19;;;;;;;2.25;1.88;;;;;;;;;;5035871;28;20476;-67
2022/07/14 07:49:44;;;;;;;1.13;0.97;;;;;;;;;;5034688;28;20167;-67
2022/07/14 07:52:10;;;;;;;2.97;1.95;;;;;;;;;;5035709;28;20306;-67
2022/07/14 07:54:36;;;;;;;4.07;2.03;;;;;;;;;;5035800;28;20037;-67
2022/07/14 07:57:01;;;;;;;2.47;2.00;;;;;;;;;;5035685;28;20147;-67
2022/07/14 07:59:27;;;;;;;2.90;1.85;;;;;;;;;;5035559;28;20496;-67
2022/07/14 08:01:53;;;;;;;4.10;2.22;;;;;;;;;;5035508;28;20021;-67
2022/07/14 08:04:19;;;;;;;2.85;1.90;;;;;;;;;;5035509;28;20384;-67
2022/07/14 08:06:44;;;;;;;3.88;2.15;;;;;;;;;;5035208;28;20198;-67
2022/07/14 08:09:12;;;;;;;2.58;1.90;;;;;;;;;;5067526;28;20041;-67
2022/07/14 08:11:39;;;;;;;1.92;1.83;;;;;;;;;;5035443;28;20526;-67
2022/07/14 08:14:04;;;;;;;2.50;2.13;;;;;;;;;;5035588;28;20044;-66
2022/07/14 08:16:29;;;;;;;2.30;2.10;;;;;;;;;;5035183;28;20037;-67
2022/07/14 08:18:55;;;;;;;2.28;2.08;;;;;;;;;;5035214;28;20029;-67
2022/07/14 08:21:20;;;;;;;1.85;1.75;;;;;;;;;;5034004;28;20358;-67
2022/07/14 08:23:47;;;;;;;2.00;1.90;;;;;;;;;;5035394;28;20457;-67
2022/07/14 08:26:12;;;;;;;1.98;1.50;;;;;;;;;;5035090;28;20025;-67
2022/07/14 08:28:38;;;;;;;2.03;1.65;;;;;;;;;;5035100;28;20084;-67
2022/07/14 08:31:03;;;;;;;1.67;1.58;;;;;;;;;;5034998;28;20026;-67
2022/07/14 08:33:29;;;;;;;1.50;1.40;;;;;;;;;;5033619;28;20393;-67
2022/07/14 08:35:54;;;;;;;4.70;1.60;;;;;;;;;;5034827;28;20070;-67
2022/07/14 08:38:20;;;;;;;1.88;1.65;;;;;;;;;;5033614;28;20037;-67
2022/07/14 08:40:46;;;;;;;2.35;1.67;;;;;;;;;;5033595;28;20017;-67
2022/07/14 08:43:12;;;;;;;1.48;1.30;;;;;;;;;;5034792;28;20030;-67
2022/07/14 08:45:40;;;;;;;2.15;1.40;;;;;;;;;;5034678;28;20460;-67
2022/07/14 08:48:06;;;;;;;2.08;1.52;;;;;;;;;;5034631;28;20025;-67
2022/07/14 08:50:32;;;;;;;2.95;1.77;;;;;;;;;;5034752;28;20096;-67
2022/07/14 08:53:03;;;;;;;1.80;1.48;;;;;;;;;;5034673;28;20029;-67
2022/07/14 08:55:29;;;;;;;2.63;1.58;;;;;;;;;;5034522;28;20108;-67
2022/07/14 08:57:54;;;;;;;3.28;1.50;;;;;;;;;;5034551;28;20101;-67
2022/07/14 09:00:20;;;;;;;2.10;1.40;;;;;;;;;;5034515;28;20053;-67
2022/07/14 09:02:53;;;;;;;1.67;1.58;;;;;;;;;;5034364;28;20441;-67
2022/07/14 09:05:19;;;;;;;3.20;1.65;;;;;;;;;;5034353;28;20030;-67
2022/07/14 09:07:45;;;;;;;2.25;1.90;;;;;;;;;;5034281;28;20052;-67
2022/07/14 09:10:17;;;;;;;1.65;1.55;;;;;;;;;;5032977;28;20083;-67
2022/07/14 09:12:42;;;;;;;1.90;1.73;;;;;;;;;;5066267;28;20461;-67
2022/07/14 09:17:59;;;;;;;2.15;1.95;;;;;;;;;;5034233;28;20037;-67
2022/07/14 09:20:27;;;;;;;2.08;1.90;;;;;;;;;;5032800;28;20370;-67
2022/07/14 09:22:54;;;;;;;2.00;1.90;;;;;;;;;;5034360;28;20025;-67
2022/07/14 09:25:19;;;;;;;1.70;1.60;;;;;;;;;;5032606;28;20390;-67
2022/07/14 09:27:48;;;;;;;1.63;1.52;;;;;;;;;;5033699;28;20025;-67
2022/07/14 09:30:15;;;;;;;2.17;1.63;;;;;;;;;;5033903;28;20025;-67
2022/07/14 09:32:45;;;;;;;1.70;1.60;;;;;;;;;;5033941;28;20017;-67
2022/07/14 09:35:12;;;;;;;1.80;1.67;;;;;;;;;;5033989;28;20030;-67
2022/07/14 09:37:38;;;;;;;1.73;1.63;;;;;;;;;;5032627;28;20017;-67
2022/07/14 09:40:05;;;;;;;2.38;1.70;;;;;;;;;;5033847;28;20025;-67
2022/07/14 09:42:50;;;;;;;1.92;1.83;;;;;;;;;;5033841;28;20381;-67
2022/07/14 09:45:16;;;;;;;1.98;1.88;;;;;;;;;;5033807;28;20032;-67
2022/07/14 09:47:54;;;;;;;2.30;2.15;;;;;;;;;;5033785;28;20013;-67
2022/07/14 09:50:33;;;;;;;3.33;1.85;;;;;;;;;;5033713;28;20025;-67
2022/07/14 09:52:58;;;;;;;3.25;2.33;;;;;;;;;;5033598;28;20508;-67
2022/07/14 09:55:24;;;;;;;1.90;1.80;;;;;;;;;;5033514;28;20021;-67
2022/07/14 09:57:51;;;;;;;2.15;2.05;;;;;;;;;;5033644;28;20362;-67
2022/07/14 10:00:19;;;;;;;4.20;2.20;;;;;;;;;;5032338;28;20010;-67
2022/07/14 10:02:45;;;;;;;2.25;2.10;;;;;;;;;;5033573;28;20036;-67
2022/07/14 10:05:12;;;;;;;1.90;1.80;;;;;;;;;;5033552;28;20021;-67
2022/07/14 10:07:38;;;;;;;2.20;2.10;;;;;;;;;;5033617;28;20068;-67
2022/07/14 10:10:13;;;;;;;2.15;2.05;;;;;;;;;;5033391;28;20037;-67
2022/07/14 10:12:41;;;;;;;3.25;2.10;;;;;;;;;;5033468;28;20036;-67
2022/07/14 10:15:07;;;;;;;2.47;2.22;;;;;;;;;;5033384;28;20029;-67
2022/07/14 10:17:37;;;;;;;2.85;2.10;;;;;;;;;;5032037;28;20147;-67
2022/07/14 10:20:03;;;;;;;3.17;2.30;;;;;;;;;;5033346;28;20457;-67
2022/07/14 10:22:29;;;;;;;2.20;2.10;;;;;;;;;;5033514;28;20021;-67
2022/07/14 10:24:56;;;;;;;2.30;2.20;;;;;;;;;;5033398;28;20026;-67
2022/07/14 10:27:21;;;;;;;2.30;2.10;;;;;;;;;;5033398;28;20029;-67
2022/07/14 10:29:48;;;;;;;2.15;2.03;;;;;;;;;;5033246;28;20030;-67
2022/07/14 10:32:20;;;;;;;2.53;2.33;;;;;;;;;;5033378;28;20477;-67
2022/07/14 10:34:52;;;;;;;2.20;2.10;;;;;;;;;;5033294;28;20033;-67
2022/07/14 10:37:18;;;;;;;2.33;2.13;;;;;;;;;;5033238;28;20425;-67
2022/07/14 10:40:03;;;;;;;2.97;2.53;;;;;;;;;;5036639;28;20079;-67
2022/07/14 10:42:37;;;;;;;2.30;2.20;;;;;;;;;;5037237;28;20021;-67
2022/07/14 10:45:03;;;;;;;3.08;2.10;;;;;;;;;;5035752;28;20075;-67
2022/07/14 10:47:43;;;;;;;2.92;1.85;;;;;;;;;;5036926;28;20494;-67
2022/07/14 10:50:11;;;;;;;4.13;1.88;;;;;;;;;;5037019;28;20116;-67
2022/07/14 10:52:37;;;;;;;3.63;1.98;;;;;;;;;;5036993;28;20022;-67
2022/07/14 10:55:12;;;;;;;2.53;2.10;;;;;;;;;;5036970;28;20034;-67
2022/07/14 10:57:38;;;;;;;3.50;2.13;;;;;;;;;;5036827;28;20041;-67
2022/07/14 11:00:04;;;;;;;2.55;2.35;;;;;;;;;;5052100;28;20033;-67
2022/07/14 11:02:31;;;;;;;2.88;2.03;;;;;;;;;;5036742;28;20021;-67
2022/07/14 11:04:57;;;;;;;2.15;2.05;;;;;;;;;;5035448;28;20017;-67
2022/07/14 11:07:32;;;;;;;2.60;2.40;;;;;;;;;;5036426;28;20046;-67
2022/07/14 11:09:57;;;;;;;3.67;2.33;;;;;;;;;;5036604;28;20029;-67
2022/07/14 11:12:24;;;;;;;3.53;2.20;;;;;;;;;;5036427;28;20075;-67
2022/07/14 11:14:49;;;;;;;3.20;2.60;;;;;;;;;;5036692;28;20520;-67
2022/07/14 11:17:33;;;;;;;2.28;2.17;;;;;;;;;;5036321;28;20098;-67
2022/07/14 11:19:58;;;;;;;2.80;2.60;;;;;;;;;;5036337;28;20030;-67
2022/07/14 11:22:25;;;;;;;5.10;2.75;;;;;;;;;;5036309;28;20032;-67
2022/07/14 11:25:00;;;;;;;2.78;2.58;;;;;;;;;;5036238;28;20033;-67
2022/07/14 11:27:26;;;;;;;2.70;2.50;;;;;;;;;;5036235;28;20396;-67
2022/07/14 11:29:51;;;;;;;2.70;2.53;;;;;;;;;;5036110;28;20076;-67
2022/07/14 11:32:35;;;;;;;3.15;2.10;;;;;;;;;;5036110;28;20037;-67
2022/07/14 11:38:00;;;;;;;2.67;2.47;;;;;;;;;;5036016;28;20087;-67
2022/07/14 11:40:44;;;;;;;2.55;2.35;;;;;;;;;;5036002;28;20479;-67
2022/07/14 11:43:28;;;;;;;2.65;2.45;;;;;;;;;;5035921;28;20104;-67
2022/07/14 11:46:04;;;;;;;2.60;2.50;;;;;;;;;;5036041;28;20041;-67
2022/07/14 11:48:31;;;;;;;2.20;2.10;;;;;;;;;;5035688;28;20026;-67
2022/07/14 11:51:02;;;;;;;5.28;2.75;;;;;;;;;;5035602;28;20492;-67
2022/07/14 11:53:28;;;;;;;2.60;2.50;;;;;;;;;;5035842;28;20543;-67
2022/07/14 11:55:54;;;;;;;3.05;2.22;;;;;;;;;;5034391;28;20026;-67
2022/07/14 11:58:22;;;;;;;2.38;2.13;;;;;;;;;;5035684;28;20029;-67
2022/07/14 12:00:54;;;;;;;2.35;2.25;;;;;;;;;;5035751;28;20112;-67
2022/07/14 12:03:20;;;;;;;3.88;2.17;;;;;;;;;;5035606;28;20104;-67
2022/07/14 12:05:45;;;;;;;2.85;2.65;;;;;;;;;;5035521;28;20116;-67
2022/07/14 12:08:12;;;;;;;2.17;2.08;;;;;;;;;;5034176;28;20068;-67
2022/07/14 12:10:38;;;;;;;3.03;2.42;;;;;;;;;;5035532;28;20056;-67
2022/07/14 12:13:04;;;;;;;2.97;2.78;;;;;;;;;;5035466;28;20088;-67
2022/07/14 12:15:30;;;;;;;2.55;2.35;;;;;;;;;;5035386;28;20033;-67
2022/07/14 12:17:55;;;;;;;3.95;2.40;;;;;;;;;;5035275;28;20128;-67
2022/07/14 12:20:21;;;;;;;2.92;2.42;;;;;;;;;;5035239;28;20018;-67
2022/07/14 12:22:51;;;;;;;2.05;1.60;;;;;;;;;;5035167;28;20032;-67
2022/07/14 12:25:28;;;;;;;2.60;1.90;;;;;;;;;;5035117;28;20565;-67
2022/07/14 12:28:00;;;;;;;2.13;2.03;;;;;;;;;;5035365;28;20025;-67
2022/07/14 12:30:43;;;;;;;2.38;2.13;;;;;;;;;;5035024;28;20037;-67
2022/07/14 12:33:08;;;;;;;2.33;2.13;;;;;;;;;;5035089;28;20033;-67
2022/07/14 12:35:34;;;;;;;2.33;2.13;;;;;;;;;;5033631;28;20021;-67
2022/07/14 12:38:00;;;;;;;2.22;2.05;;;;;;;;;;5034926;28;20052;-67
2022/07/14 12:40:25;;;;;;;2.13;2.00;;;;;;;;;;5034846;28;20056;-67
2022/07/14 12:42:51;;;;;;;2.08;1.98;;;;;;;;;;5034856;28;20025;-67
2022/07/14 12:45:16;;;;;;;1.95;1.85;;;;;;;;;;5034714;28;20372;-67
2022/07/14 12:47:48;;;;;;;2.17;2.08;;;;;;;;;;5034793;28;20040;-67
2022/07/14 12:50:18;;;;;;;2.13;2.03;;;;;;;;;;5034746;28;20461;-67
2022/07/14 12:52:50;;;;;;;2.85;2.13;;;;;;;;;;5033480;28;20049;-67
2022/07/14 12:55:32;;;;;;;2.50;2.15;;;;;;;;;;5034533;28;20396;-67
2022/07/14 12:58:04;;;;;;;2.97;2.10;;;;;;;;;;5034491;28;20033;-67
2022/07/14 13:00:30;;;;;;;2.15;1.98;;;;;;;;;;5033998;28;20167;-67
2022/07/14 13:03:15;;;;;;;3.38;2.50;;;;;;;;;;5034235;28;20096;-67
2022/07/14 13:05:47;;;;;;;2.25;2.05;;;;;;;;;;5034198;28;20033;-67
2022/07/14 13:08:28;;;;;;;2.00;1.88;;;;;;;;;;5034320;28;20029;-67
2022/07/14 13:10:55;;;;;;;2.75;2.13;;;;;;;;;;5033087;28;20037;-67
2022/07/14 13:13:30;;;;;;;3.55;2.15;;;;;;;;;;5049554;28;20025;-67
2022/07/14 13:16:28;;;;;;;2.58;2.38;;;;;;;;;;5034227;28;20036;-67
2022/07/14 13:19:12;;;;;;;5.13;2.03;;;;;;;;;;5011557;28;20038;-67
2022/07/14 13:21:47;;;;;;;2.55;2.35;;;;;;;;;;5034168;28;20423;-67
2022/07/14 13:24:13;;;;;;;2.35;2.25;;;;;;;;;;5034097;28;20025;-67
2022/07/14 13:26:39;;;;;;;2.05;1.83;;;;;;;;;;5034137;28;20108;-67
2022/07/14 13:29:04;;;;;;;2.17;2.08;;;;;;;;;;5034045;28;20064;-67
2022/07/14 13:31:30;;;;;;;2.30;2.17;;;;;;;;;;5049289;28;20025;-67
2022/07/14 13:33:58;;;;;;;2.33;2.13;;;;;;;;;;5033865;28;20033;-67
2022/07/14 13:36:24;;;;;;;3.42;2.90;;;;;;;;;;5032539;28;20040;-67
2022/07/14 13:38:49;;;;;;;4.50;2.50;;;;;;;;;;5033852;28;20473;-67
2022/07/14 13:41:15;;;;;;;2.60;2.40;;;;;;;;;;5033856;28;20013;-67
2022/07/14 13:43:41;;;;;;;3.00;2.72;;;;;;;;;;5032656;28;20084;-67
2022/07/14 13:46:08;;;;;;;2.50;2.40;;;;;;;;;;5033859;28;20029;-67
2022/07/14 13:48:34;;;;;;;3.17;2.88;;;;;;;;;;5033686;28;20029;-67
2022/07/14 13:53:45;;;;;;;3.20;2.90;;;;;;;;;;5033565;28;20042;-68
2022/07/14 13:56:10;;;;;;;5.18;3.38;;;;;;;;;;5032688;28;20025;-68
2022/07/14 13:58:36;;;;;;;3.67;3.15;;;;;;;;;;5031353;28;20389;-68
2022/07/14 14:01:01;;;;;;;2.88;2.67;;;;;;;;;;5031413;28;20048;-68
2022/07/14 14:03:27;;;;;;;2.50;2.40;;;;;;;;;;5032768;28;20030;-67
2022/07/14 14:05:57;;;;;;;4.32;2.67;;;;;;;;;;5031125;28;20099;-68
2022/07/14 14:08:24;;;;;;;6.00;2.42;;;;;;;;;;5032587;28;20086;-67
2022/07/14 14:10:50;;;;;;;2.75;2.55;;;;;;;;;;5064588;28;20469;-67
2022/07/14 14:13:16;;;;;;;2.85;2.65;;;;;;;;;;5035205;28;20064;-67
2022/07/14 14:15:41;;;;;;;2.88;2.67;;;;;;;;;;5036351;28;20387;-68
2022/07/14 14:18:07;;;;;;;3.08;2.83;;;;;;;;;;5036454;28;20025;-67
2022/07/14 14:20:32;;;;;;;3.33;3.03;;;;;;;;;;5035239;28;20350;-67
2022/07/14 14:22:58;;;;;;;2.85;2.63;;;;;;;;;;5036383;28;20038;-67
2022/07/14 14:25:23;;;;;;;3.40;3.00;;;;;;;;;;5036591;28;20013;-67
2022/07/14 14:27:48;;;;;;;3.38;2.80;;;;;;;;;;5035005;28;20033;-67
2022/07/14 14:30:14;;;;;;;3.53;3.22;;;;;;;;;;5036246;28;20075;-67
2022/07/14 14:32:40;;;;;;;3.35;3.15;;;;;;;;;;5034901;28;20040;-67
2022/07/14 14:35:06;;;;;;;3.38;3.00;;;;;;;;;;5034830;28;20029;-67
2022/07/14 14:37:32;;;;;;;3.38;3.08;;;;;;;;;;5036075;28;20026;-67
2022/07/14 14:39:57;;;;;;;3.20;2.90;;;;;;;;;;5034778;28;20093;-67
2022/07/14 14:42:23;;;;;;;3.22;2.92;;;;;;;;;;5035980;28;20056;-67
2022/07/14 14:44:48;;;;;;;3.17;2.88;;;;;;;;;;5035936;28;20022;-67
2022/07/14 14:47:15;;;;;;;3.58;3.28;;;;;;;;;;5034610;28;20029;-67
2022/07/14 14:49:53;;;;;;;3.83;2.95;;;;;;;;;;5034634;28;20022;-67
2022/07/14 14:52:22;;;;;;;3.15;2.90;;;;;;;;;;5035831;28;20029;-67
2022/07/14 14:54:49;;;;;;;4.05;2.90;;;;;;;;;;5035755;28;20024;-67
2022/07/14 14:57:15;;;;;;;2.88;2.67;;;;;;;;;;5034219;28;20044;-67
2022/07/14 14:59:40;;;;;;;2.65;2.42;;;;;;;;;;5034393;28;20017;-67
2022/07/14 15:02:06;;;;;;;3.10;2.90;;;;;;;;;;5034401;28;20038;-67